Seelyville, Indiana
Current Conditions -  °F | °C
As of 3:53 AM on Saturday 22 Nov 2014 (Local Time) from KHUF Reporting Station
Overcast Overcast  
Wind Chill: 31°   Ceiling: 6000
Heat Index: 37°   Visibility: 10mi
Dew Point: 29°   Wind: 8mph
Humidity: 73%   Direction: 180°S
Pressure: 30.23"   Gusts: NA
Location:  39.49°N, 87.27°W
Report Text: KHUF 220853Z 18007KT 10SM FEW026 BKN060 OVC080 03/M02 A3023 RMK AO2 RAE16 SLP240 P0001 60002 T00281017 58018
Loading
Personal Weather Stations






























Interactive Weather Map New forecast layout! Learn more

10-Day Weather Forecast

Advertisements
Track Severe Weather on mobile